MOL Celebration — C6WW7 — position and weather

sailwx.info

Track history (hours):
 
Tides and Currents Weather Stations Pressure Air Temp Water Temp Dewpoint Dewpoint Depression Visibility Wind Speed Wind Dir Waves Ship Positions

MOL Celebration

Last reported at 2016-Jul-27 03:32 UTC. Time now 2016-Jul-28 08:35 UTC.
Position N 22°06' E 114°23'.

Length 316 m; draft 9.9 m.

Type: Ship (hazmat cat D). MMSI: 309901000.

Date/timePositionNaut miles runAvg speedWind from/ knotsBaromVisibWave heightAir tempDewpointWater temp
2016-Jul-27 03:32N 22°06' E 114°23'2010.3
2016-Jul-27 01:33N 22°20' E 114°07'0 0.0
2016-Jul-26 18:14N 22°20' E 114°08'1 0.0
2016-Jul-26 04:18N 22°20' E 114°07'15 8.0
2016-Jul-26 02:25N 22°08' E 114°17'910.0
2016-Jul-26 01:30N 22°07' E 114°27'1310.2
2016-Jul-26 00:14N 22°08' E 114°41'17616.0
2016-Jul-25 13:15N 23°14' E 117°38'1518.7
2016-Jul-25 12:26N 23°23' E 117°51'1819.5
2016-Jul-25 11:32N 23°34' E 118°06'1818.4
2016-Jul-25 10:33N 23°45' E 118°22'1818.4
2016-Jul-25 09:33N 23°57' E 118°37'1918.5
2016-Jul-25 08:33N 24°07' E 118°54'1918.9
2016-Jul-25 07:32N 24°20' E 119°10'1818.2
2016-Jul-25 06:33N 24°32' E 119°24'  
Track history (hours):
 
Tides and Currents Weather Stations Pressure Air Temp Water Temp Dewpoint Dewpoint Depression Visibility Wind Speed Wind Dir Waves Ship Positions

MOL Celebration

Last reported at 2016-Jul-27 03:32 UTC. Time now 2016-Jul-28 08:35 UTC.
Position N 22°06' E 114°23'.

Length 316 m; draft 9.9 m.

Type: Ship (hazmat cat D). MMSI: 309901000.

Date/timePositionNaut miles runAvg speedWind from/ knotsBaromVisibWave heightAir tempDewpointWater temp
2016-Jul-27 03:32N 22°06' E 114°23'2010.3
2016-Jul-27 01:33N 22°20' E 114°07'0 0.0
2016-Jul-26 18:14N 22°20' E 114°08'1 0.0
2016-Jul-26 04:18N 22°20' E 114°07'15 8.0
2016-Jul-26 02:25N 22°08' E 114°17'910.0
2016-Jul-26 01:30N 22°07' E 114°27'1310.2
2016-Jul-26 00:14N 22°08' E 114°41'17616.0
2016-Jul-25 13:15N 23°14' E 117°38'1518.7
2016-Jul-25 12:26N 23°23' E 117°51'1819.5
2016-Jul-25 11:32N 23°34' E 118°06'1818.4
2016-Jul-25 10:33N 23°45' E 118°22'1818.4
2016-Jul-25 09:33N 23°57' E 118°37'1918.5
2016-Jul-25 08:33N 24°07' E 118°54'1918.9
2016-Jul-25 07:32N 24°20' E 119°10'1818.2
2016-Jul-25 06:33N 24°32' E 119°24'  

Dump ship's entire track history